Terminal Aerodrome Forecast
Issued by NWS

Home | Current Version | Previous Version | Text Only | Print | Product List | Glossary On
Versions: 1 2 3 4 5 6 7 8 9 10 11 12 13 14 15 16 17 18 19 20 21 22 23 24 25 26
805
FTUS43 KGRB 121735
TAFCWA
TAF
KCWA 121735Z 1218/1318 31010KT P6SM FEW020 SCT100
     FM122100 31007KT P6SM BKN100
     FM130000 VRB03KT P6SM OVC070
     FM130600 VRB03KT P6SM -SN SCT015 BKN050
     FM130900 11007KT 1 1/2SM -SN BKN015
     FM131300 09010KT 1SM -SN VV004=

USA.gov is the U.S. government's official web portal to all federal, state and local government web resources and services.